• Join FlightAware (Why Join?)
  • Login
  • US Flag 
06:47AM EDT


 

Airport Tracker/Info


-or-


 

Live Flight TrackerFlight Track Log ✈ DAL95 ✈ 15-Apr-2013 ✈ LEBL / BCN - KJFK

Flight Track Log - Related Links

Times and Time Zones

All times are in EDT time to prevent confusion due to time zone crossing. See the DAL95 flight status page for this flight to view local times or setup timezone preferences in your user account.

Time Position Orientation Groundspeed Altitude Reporting Facility
EDT Latitude Longitude Course Direction KTS MPH feet Rate Location/Type
04:29AM 41.3418 1.9418 294° West  Level FlightAware Approximate
04:30AM 41.3923 1.8064 294° West  Level FlightAware Approximate
04:31AM 41.4432 1.6738 301° West  Level FlightAware Approximate
04:32AM 41.4968 1.5429 294° West  Level FlightAware Approximate
04:33AM 41.5424 1.4063 294° West  Level FlightAware Approximate
04:34AM 41.5928 1.2728 297° West  Level FlightAware Approximate
04:35AM 41.6440 1.1397 297° West  Level FlightAware Approximate
04:36AM 41.6951 1.0064 297° West  Level FlightAware Approximate
04:37AM 41.7431 0.8710 294° West  Level FlightAware Approximate
04:37AM 41.2880 2.0500 294° West 169 194 900  Level FlightAware
04:37AM 41.2790 2.0210 248° West 165 190 2,100 2,100 Climbing FlightAware
04:38AM 41.2710 1.9970 246° West 161 185 3,000 1,380 Climbing FlightAware
04:38AM 41.2620 1.9700 246° West 189 217 3,400 900 Climbing FlightAware
04:38AM 41.2560 1.9520 246° West 212 244 3,600 1,020 Climbing FlightAware
04:39AM 41.2450 1.9210 245° Southwest 240 276 4,100 1,320 Climbing FlightAware
04:39AM 41.2400 1.8980 254° West 258 297 4,500 2,520 Climbing FlightAware
04:39AM 41.2480 1.8510 283° West 262 302 6,000 2,760 Climbing FlightAware
04:40AM 41.2620 1.8040 292° West 270 311 7,300 2,400 Climbing FlightAware
04:40AM 41.2720 1.7660 289° West 280 322 8,200 2,400 Climbing FlightAware
04:41AM 41.2790 1.7400 290° West 281 323 8,900 1,800 Climbing FlightAware
04:41AM 41.2990 1.6610 289° West 10,800 1,680 Climbing FlightAware
04:42AM 41.3220 1.5740 289° West 340 391 11,600 1,740 Climbing FlightAware
04:43AM 41.3450 1.4830 289° West 350 403 13,300 2,280 Climbing FlightAware
04:43AM 41.3570 1.4520 297° West 356 410 13,900 2,400 Climbing FlightAware
04:44AM 41.3980 1.3830 308° West 361 415 15,500 2,160 Climbing FlightAware
04:44AM 41.4390 1.3120 308° West 369 425 16,800 1,740 Climbing FlightAware
04:45AM 41.4870 1.2320 309° West 381 438 18,000 1,140 Climbing FlightAware
04:46AM 41.5350 1.1480 307° West 384 442 18,700 1,680 Climbing FlightAware
04:47AM 41.5850 1.0630 308° West 392 451 20,700 1,560 Climbing FlightAware
04:48AM 41.6450 0.9580 307° West 407 468 21,200 1,320 Climbing FlightAware
04:48AM 41.6960 0.8720 308° West 412 474 22,900 2,040 Climbing FlightAware
04:49AM 41.7560 0.7680 308° West 419 482 24,100 1,620 Climbing FlightAware
04:50AM 41.8080 0.6760 307° West 421 484 25,200 1,260 Climbing FlightAware
04:51AM 41.8570 0.5920 308° West 428 493 25,900 960 Climbing FlightAware
04:51AM 41.9100 0.4990 307° West 437 503 26,600 1,080 Climbing FlightAware
04:52AM 41.9610 0.4080 307° West 438 504 27,500 1,200 Climbing FlightAware
04:53AM 42.0020 0.3150 301° West 440 506 28,200 960 Climbing FlightAware
04:53AM 42.0420 0.2080 297° West 444 511 28,900 780 Climbing FlightAware
04:54AM 42.0730 0.1250 297° West 449 517 29,300 720 Climbing FlightAware
04:55AM 42.1230 -0.0080 297° West 453 521 30,000 900 Climbing FlightAware
04:55AM 42.1610 -0.1120 296° West 453 521 30,700 1,200 Climbing FlightAware
04:56AM 42.1980 -0.2110 297° West 446 513 31,600 1,260 Climbing FlightAware
04:57AM 42.2380 -0.3200 296° West 440 506 32,500 1,020 Climbing FlightAware
04:58AM 42.2740 -0.4180 296° West 438 504 33,100 960 Climbing FlightAware
04:58AM 42.3130 -0.5250 296° West 435 501 33,900 1,020 Climbing FlightAware
04:59AM 42.3500 -0.6260 296° West 428 493 34,600 900 Climbing FlightAware
05:00AM 42.3840 -0.7200 296° West 428 493 35,100 600 Climbing FlightAware
05:00AM 42.4240 -0.8310 296° West 433 498 35,500 540 Climbing FlightAware
05:01AM 42.4600 -0.9290 296° West 432 497 35,900 480 Climbing FlightAware
05:02AM 42.4980 -1.0350 296° West 436 502 36,200 480 Climbing FlightAware
05:02AM 42.5330 -1.1340 296° West 438 504 36,600 540 Climbing FlightAware
05:03AM 42.5730 -1.2450 296° West 436 502 37,000 300 Climbing FlightAware
05:04AM 42.6020 -1.3280 295° West 432 497 37,000  Level FlightAware
05:05AM 42.6410 -1.4380 296° West 431 496 37,000  Level FlightAware
05:05AM 42.6800 -1.5490 296° West 431 496 37,000  Level FlightAware
05:06AM 42.7140 -1.6440 296° West 432 497 37,000  Level FlightAware
05:07AM 42.7550 -1.7490 298° West 435 501 37,000  Level FlightAware
05:07AM 42.8030 -1.8490 303° West 435 501 37,000  Level FlightAware
05:08AM 42.8600 -1.9710 303° West 433 498 37,000  Level FlightAware
05:09AM 42.9110 -2.0790 303° West 435 501 37,000  Level FlightAware
05:10AM 42.9510 -2.1650 302° West 434 499 37,000  Level FlightAware
05:10AM 42.9950 -2.2590 303° West 432 497 37,000  Level FlightAware
05:11AM 43.0230 -2.3620 290° West 426 490 37,000  Level FlightAware
05:12AM 43.0460 -2.4770 285° West 426 490 37,000  Level FlightAware
05:13AM 43.0720 -2.6000 286° West 426 490 37,000  Level FlightAware
05:13AM 43.0960 -2.7190 285° West 426 490 37,000  Level FlightAware
05:14AM 43.1210 -2.8420 286° West 425 489 37,000  Level FlightAware
05:15AM 43.1390 -2.9350 285° West 425 489 37,000  Level FlightAware
05:16AM 43.1630 -3.0550 285° West 426 490 37,000  Level FlightAware
05:16AM 43.1850 -3.1650 285° West 427 491 37,000  Level FlightAware
05:17AM 43.2090 -3.2830 286° West 427 491 37,000  Level FlightAware
05:18AM 43.2280 -3.3820 285° West 427 491 37,000  Level FlightAware
05:18AM 43.2460 -3.4710 286° West 426 490 37,000  Level FlightAware
05:19AM 43.2690 -3.5960 284° West 425 489 37,000  Level FlightAware
05:20AM 43.2850 -3.6850 284° West 425 489 37,000  Level FlightAware
05:20AM 43.3010 -3.7740 284° West 425 489 37,000  Level FlightAware
05:21AM 43.3170 -3.8630 284° West 425 489 37,000  Level FlightAware
05:22AM 43.3520 -4.0260 287° West 430 495 37,000  Level FlightAware
05:23AM 43.3770 -4.1590 285° West 431 496 37,000  Level FlightAware
05:23AM 43.3980 -4.2690 285° West 432 497 37,000  Level FlightAware
05:24AM 43.4200 -4.3870 284° West 430 495 37,000  Level FlightAware
05:25AM 43.4350 -4.4690 284° West 430 495 37,000  Level FlightAware
05:25AM 43.4530 -4.6160 280° West 427 491 37,000  Level FlightAware
05:26AM 43.4620 -4.7210 277° West 429 494 37,000  Level FlightAware
05:27AM 43.4710 -4.8310 276° West 428 493 37,000  Level FlightAware
05:27AM 43.4800 -4.9530 276° West 428 493 37,000  Level FlightAware
05:28AM 43.4880 -5.0600 276° West 426 490 37,000  Level FlightAware
05:29AM 43.4970 -5.1690 277° West 424 488 37,000  Level FlightAware
05:29AM 43.5050 -5.2760 276° West 423 487 37,000  Level FlightAware
05:30AM 43.5140 -5.3960 276° West 423 487 37,000  Level FlightAware
05:31AM 43.5220 -5.5160 275° West 420 483 37,000  Level FlightAware
05:32AM 43.5290 -5.6060 276° West 420 483 37,000  Level FlightAware
05:32AM 43.5380 -5.7350 276° West 420 483 37,000  Level FlightAware
05:33AM 43.5470 -5.8480 276° West 420 483 37,000  Level FlightAware
05:34AM 43.5630 -5.9530 282° West 421 484 37,000  Level FlightAware
05:34AM 43.5930 -6.0650 290° West 421 484 37,000  Level FlightAware
05:35AM 43.6330 -6.1590 300° West 416 479 37,000  Level FlightAware
05:36AM 43.6750 -6.2410 305° West 397 457 37,000  Level FlightAware
05:37AM 43.7230 -6.3350 305° West 395 455 37,000  Level FlightAware
05:37AM 43.7590 -6.4070 305° West 397 457 37,000  Level FlightAware
05:38AM 43.8110 -6.5100 305° West 398 458 37,000  Level FlightAware
05:39AM 43.8540 -6.5970 304° West 399 459 37,000  Level FlightAware
05:39AM 43.8960 -6.6810 305° West 400 460 37,000  Level FlightAware
05:40AM 43.9430 -6.7780 304° West 411 473 37,000 60 Level FlightAware
05:41AM 43.9850 -6.8630 304° West 417 480 37,100 180 Climbing FlightAware
05:41AM 44.0350 -6.9650 304° West 423 487 37,300 180 Climbing FlightAware
05:42AM 44.0790 -7.0550 304° West 428 493 37,400 300 Climbing FlightAware
05:43AM 44.1200 -7.1390 304° West 428 493 37,700 420 Climbing FlightAware
05:44AM 44.1720 -7.2450 304° West 428 493 38,000 180 Climbing FlightAware
05:44AM 44.2200 -7.3430 304° West 430 495 38,000  Level FlightAware
05:45AM 44.2700 -7.4460 304° West 421 484 38,000  Level FlightAware
05:46AM 44.3100 -7.5290 304° West 415 478 38,000  Level FlightAware
05:46AM 44.3480 -7.6080 304° West 414 476 38,000  Level FlightAware
05:47AM 44.4030 -7.7240 304° West 416 479 38,000  Level FlightAware
05:48AM 44.4440 -7.8090 304° West 415 478 38,000  Level FlightAware
05:48AM 44.4920 -7.9100 304° West 414 476 38,000  Level FlightAware
05:50AM 44.5780 -8.0920 304° West 414 476 38,000  Level FlightAware
05:51AM 44.6250 -8.1920 303° West 415 478 38,000  Level FlightAware
05:51AM 44.6660 -8.2790 304° West 416 479 38,000  Level FlightAware
05:52AM 44.7090 -8.3690 304° West 414 476 38,000  Level FlightAware
05:53AM 44.7590 -8.4760 303° West 414 476 38,000  Level FlightAware
05:53AM 44.7970 -8.5580 303° West 413 475 38,000  Level FlightAware
05:54AM 44.8440 -8.6610 303° West 409 471 38,000  Level FlightAware
05:55AM 44.9270 -8.8390 303° West 406 467 38,000  Level FlightAware
05:56AM 44.9740 -8.9420 303° West 405 466 38,000  Level FlightAware
05:57AM 45.0200 -9.0270 307° West 407 468 38,000  Level FlightAware
05:58AM 45.0730 -9.1030 315° West 417 480 38,000  Level FlightAware
05:58AM 45.1200 -9.1690 315° West 417 480 38,000  Level FlightAware
05:59AM 45.1660 -9.2340 315° West 417 480 38,000  Level FlightAware
06:00AM 45.2120 -9.3000 315° West 417 480 38,000  Level FlightAware
06:00AM 45.2590 -9.3660 315° West 417 480 38,000  Level FlightAware
06:01AM 45.4030 -9.5450 319° Northwest 427 491 38,000  Level FlightAware
06:02AM 45.4440 -9.6020 316° Northwest 427 491 38,000  Level FlightAware
06:03AM 45.5190 -9.7050 316° Northwest 428 493 38,000  Level FlightAware
06:03AM 45.5650 -9.7700 315° West 428 493 38,000  Level FlightAware
06:04AM 45.6340 -9.8640 316° Northwest 428 493 38,000  Level FlightAware
06:05AM 45.7020 -9.9580 316° Northwest 427 491 38,000  Level FlightAware
06:06AM 45.7750 -10.0610 315° West 425 489 38,000  Level FlightAware
06:07AM 45.8550 -10.1720 316° Northwest 425 489 38,000  Level FlightAware
06:07AM 45.9080 -10.2480 315° West 425 489 38,000  Level FlightAware
06:08AM 45.9850 -10.3540 316° Northwest 426 490 38,000  Level FlightAware
06:09AM 45.9850 -10.3540 316° Northwest 427 491 38,000  Level FlightAware
06:10AM 46.1220 -10.5500 315° West 427 491 38,000  Level FlightAware
06:11AM 46.1700 -10.6180 316° Northwest 427 491 38,000  Level FlightAware
06:12AM 46.2660 -10.7550 315° West 432 497 38,000  Level FlightAware
06:12AM 46.3140 -10.8240 315° West 432 497 38,000  Level FlightAware
06:13AM 46.3620 -10.8940 315° West 432 497 38,000  Level FlightAware
06:14AM 46.4370 -11.0010 316° Northwest 431 496 38,000  Level FlightAware
06:14AM 46.4850 -11.0710 315° West 431 496 38,000  Level FlightAware
06:15AM 46.5330 -11.1400 315° West 431 496 38,000  Level FlightAware
06:16AM 46.4060 -10.9560 135° Southeast 38,000  Level FlightAware
06:18AM 46.4607 -11.2284 286° West  Level Estimated
06:19AM 46.4909 -11.3800 286° West  Level Estimated
06:20AM 46.5208 -11.5317 286° West  Level Estimated
06:21AM 46.5505 -11.6836 286° West  Level Estimated
06:22AM 46.5801 -11.8357 286° West  Level Estimated
06:23AM 46.6094 -11.9879 286° West  Level Estimated
06:24AM 46.6385 -12.1403 286° West  Level Estimated
06:25AM 46.6674 -12.2929 285° West  Level Estimated
06:26AM 46.6962 -12.4456 285° West  Level Estimated
06:27AM 46.7247 -12.5985 285° West  Level Estimated
06:28AM 46.7530 -12.7516 285° West  Level Estimated
06:29AM 46.7811 -12.9048 285° West  Level Estimated
06:30AM 46.8090 -13.0582 285° West  Level Estimated
06:31AM 46.8367 -13.2117 285° West  Level Estimated
06:32AM 46.8642 -13.3654 285° West  Level Estimated
06:33AM 46.8915 -13.5192 285° West  Level Estimated
06:34AM 46.9186 -13.6732 284° West  Level Estimated
06:35AM 46.9454 -13.8274 284° West  Level Estimated
06:36AM 46.9721 -13.9817 284° West  Level Estimated
06:37AM 46.9986 -14.1362 284° West  Level Estimated
06:38AM 47.0248 -14.2908 284° West  Level Estimated
06:39AM 47.0508 -14.4455 284° West  Level Estimated
06:40AM 47.0767 -14.6005 284° West  Level Estimated
06:41AM 47.1023 -14.7555 284° West  Level Estimated
06:42AM 47.1277 -14.9108 284° West  Level Estimated
06:43AM 47.1529 -15.0661 283° West  Level Estimated
06:44AM 47.1779 -15.2216 283° West  Level Estimated
06:45AM 47.2027 -15.3773 283° West  Level Estimated
06:46AM 47.2273 -15.5331 283° West  Level Estimated
06:47AM 47.2517 -15.6894 283° West  Level Estimated
06:48AM 47.2759 -15.8457 283° West  Level Estimated
06:49AM 47.2999 -16.0023 283° West  Level Estimated
06:50AM 47.3237 -16.1590 283° West  Level Estimated
06:51AM 47.3472 -16.3158 283° West  Level Estimated
06:52AM 47.3706 -16.4727 282° West  Level Estimated
06:53AM 47.3937 -16.6299 282° West  Level Estimated
06:54AM 47.4166 -16.7871 282° West  Level Estimated
06:55AM 47.4393 -16.9445 282° West  Level Estimated
06:56AM 47.4618 -17.1020 282° West  Level Estimated
06:57AM 47.4841 -17.2596 282° West  Level Estimated
06:58AM 47.5061 -17.4174 282° West  Level Estimated
06:59AM 47.5279 -17.5753 282° West  Level Estimated
07:00AM 47.5496 -17.7333 282° West  Level Estimated
07:01AM 47.5710 -17.8915 281° West  Level Estimated
07:02AM 47.5921 -18.0498 281° West  Level Estimated
07:03AM 47.6131 -18.2082 281° West  Level Estimated
07:04AM 47.6339 -18.3668 281° West  Level Estimated
07:05AM 47.6544 -18.5254 281° West  Level Estimated
07:06AM 47.6747 -18.6842 281° West  Level Estimated
07:07AM 47.6965 -18.8564 281° West  Level Estimated
07:08AM 47.7180 -19.0287 281° West  Level Estimated
07:09AM 47.7392 -19.2012 280° West  Level Estimated
07:10AM 47.7602 -19.3738 280° West  Level Estimated
07:11AM 47.7809 -19.5466 280° West  Level Estimated
07:12AM 47.8014 -19.7194 280° West  Level Estimated
07:13AM 47.8216 -19.8924 280° West  Level Estimated
07:14AM 47.8415 -20.0656 280° West  Level Estimated
07:15AM 47.8612 -20.2389 280° West  Level Estimated
07:16AM 47.8806 -20.4123 280° West  Level Estimated
07:16AM 51.0000 -20.0000 300° West 443 510 38,000  Level ETMS Enhanced Traffic Management System
07:17AM 47.8998 -20.5858 279° West  Level Estimated
07:18AM 47.9179 -20.7526 279° West  Level Estimated
07:18AM 51.1000 -20.3000 300° West 437 503 38,000  Level ETMS Enhanced Traffic Management System
07:19AM 47.9358 -20.9194 279° West  Level Estimated
07:20AM 47.9535 -21.0864 279° West  Level Estimated
07:21AM 47.9709 -21.2535 279° West  Level Estimated
07:22AM 51.3669 -21.0243 299° West 443 510 38,000  Level FlightAware Transoceanic
07:23AM 51.4272 -21.1966 299° West 443 510 38,000  Level FlightAware Transoceanic
07:24AM 51.4602 -21.3141 299° West 437 503 38,000  Level FlightAware Transoceanic
07:25AM 51.5193 -21.4847 299° West 437 503 38,000  Level FlightAware Transoceanic
07:26AM 51.5783 -21.6557 299° West 437 503 38,000  Level FlightAware Transoceanic
07:27AM 51.6369 -21.8272 299° West 437 503 38,000  Level FlightAware Transoceanic
07:28AM 51.6953 -21.9991 299° West 437 503 38,000  Level FlightAware Transoceanic
07:29AM 51.7535 -22.1714 299° West 437 503 38,000  Level FlightAware Transoceanic
07:30AM 51.8114 -22.3442 298° West 437 503 38,000  Level FlightAware Transoceanic
07:31AM 51.8691 -22.5175 298° West 437 503 38,000  Level FlightAware Transoceanic
07:32AM 51.9265 -22.6912 298° West 437 503 38,000  Level FlightAware Transoceanic
07:33AM 51.9837 -22.8653 298° West 437 503 38,000  Level FlightAware Transoceanic
07:34AM 52.0405 -23.0398 298° West 437 503 38,000  Level FlightAware Transoceanic
07:35AM 52.0972 -23.2148 298° West 437 503 38,000  Level FlightAware Transoceanic
07:36AM 52.1536 -23.3903 298° West 437 503 38,000  Level FlightAware Transoceanic
07:37AM 52.2097 -23.5662 297° West 437 503 38,000  Level FlightAware Transoceanic
07:38AM 52.2655 -23.7425 297° West 437 503 38,000  Level FlightAware Transoceanic
07:39AM 52.3211 -23.9193 297° West 437 503 38,000  Level FlightAware Transoceanic
07:40AM 52.3764 -24.0965 297° West 437 503 38,000  Level FlightAware Transoceanic
07:41AM 52.4315 -24.2742 297° West 437 503 38,000  Level FlightAware Transoceanic
07:42AM 52.4863 -24.4523 297° West 437 503 38,000  Level FlightAware Transoceanic
07:43AM 52.5408 -24.6309 297° West 437 503 38,000  Level FlightAware Transoceanic
07:44AM 52.5951 -24.8099 296° West 437 503 38,000  Level FlightAware Transoceanic
07:45AM 52.6491 -24.9893 296° West 437 503 38,000  Level FlightAware Transoceanic
07:46AM 52.7028 -25.1692 296° West 437 503 38,000  Level FlightAware Transoceanic
07:47AM 52.7562 -25.3496 296° West 437 503 38,000  Level FlightAware Transoceanic
07:48AM 52.8094 -25.5303 296° West 437 503 38,000  Level FlightAware Transoceanic
07:49AM 52.8623 -25.7115 296° West 437 503 38,000  Level FlightAware Transoceanic
07:50AM 52.9149 -25.8932 296° West 437 503 38,000  Level FlightAware Transoceanic
07:51AM 52.9672 -26.0753 295° West 437 503 38,000  Level FlightAware Transoceanic
07:52AM 53.0193 -26.2578 295° West 437 503 38,000  Level FlightAware Transoceanic
07:53AM 53.0710 -26.4408 295° West 437 503 38,000  Level FlightAware Transoceanic
07:54AM 53.1226 -26.6242 295° West 437 503 38,000  Level FlightAware Transoceanic
07:55AM 53.1738 -26.8081 295° West 437 503 38,000  Level FlightAware Transoceanic
07:56AM 53.2247 -26.9923 295° West 437 503 38,000  Level FlightAware Transoceanic
07:57AM 53.2753 -27.1771 295° West 437 503 38,000  Level FlightAware Transoceanic
07:58AM 53.3257 -27.3622 294° West 437 503 38,000  Level FlightAware Transoceanic
07:59AM 53.3758 -27.5478 294° West 437 503 38,000  Level FlightAware Transoceanic
08:00AM 53.4255 -27.7339 294° West 437 503 38,000  Level FlightAware Transoceanic
08:01AM 53.4750 -27.9203 294° West 437 503 38,000  Level FlightAware Transoceanic
08:02AM 53.5242 -28.1073 294° West 437 503 38,000  Level FlightAware Transoceanic
08:03AM 53.5732 -28.2946 294° West 437 503 38,000  Level FlightAware Transoceanic
08:04AM 53.6218 -28.4824 293° West 437 503 38,000  Level FlightAware Transoceanic
08:05AM 53.6701 -28.6706 293° West 437 503 38,000  Level FlightAware Transoceanic
08:06AM 53.7181 -28.8592 293° West 437 503 38,000  Level FlightAware Transoceanic
08:07AM 53.7659 -29.0483 293° West 437 503 38,000  Level FlightAware Transoceanic
08:08AM 53.8133 -29.2378 293° West 437 503 38,000  Level FlightAware Transoceanic
08:09AM 53.8604 -29.4277 293° West 437 503 38,000  Level FlightAware Transoceanic
08:10AM 53.9072 -29.6180 293° West 437 503 38,000  Level FlightAware Transoceanic
08:11AM 53.9538 -29.8088 292° West 437 503 38,000  Level FlightAware Transoceanic
08:12AM 53.9968 -29.9869 292° West  Level FlightAware Approximate
08:13AM 54.0396 -30.1653 292° West  Level FlightAware Approximate
08:14AM 54.0067 -30.1639 274° West  Level FlightAware Approximate
08:15AM 54.0143 -30.3561 274° West  Level FlightAware Approximate
08:16AM 54.0215 -30.5485 274° West  Level FlightAware Approximate
08:17AM 54.0285 -30.7409 274° West  Level FlightAware Approximate
08:18AM 54.0352 -30.9333 273° West  Level FlightAware Approximate
08:19AM 54.0415 -31.1258 273° West  Level FlightAware Approximate
08:20AM 54.0476 -31.3184 273° West  Level FlightAware Approximate
08:21AM 54.0533 -31.5110 273° West  Level FlightAware Approximate
08:22AM 54.0587 -31.7037 273° West  Level FlightAware Approximate
08:23AM 54.0639 -31.8964 273° West  Level FlightAware Approximate
08:24AM 54.0687 -32.0892 273° West  Level FlightAware Approximate
08:25AM 54.0732 -32.2820 272° West  Level FlightAware Approximate
08:26AM 54.0774 -32.4749 272° West  Level FlightAware Approximate
08:27AM 54.0813 -32.6678 272° West  Level FlightAware Approximate
08:28AM 54.0848 -32.8607 272° West  Level FlightAware Approximate
08:29AM 54.0881 -33.0537 272° West  Level FlightAware Approximate
08:30AM 54.0911 -33.2467 272° West  Level FlightAware Approximate
08:31AM 54.0937 -33.4397 271° West  Level FlightAware Approximate
08:32AM 54.0961 -33.6327 271° West  Level FlightAware Approximate
08:33AM 54.0981 -33.8258 271° West  Level FlightAware Approximate
08:34AM 54.0998 -34.0189 271° West  Level FlightAware Approximate
08:35AM 54.1012 -34.2120 271° West  Level FlightAware Approximate
08:36AM 54.1023 -34.4051 271° West  Level FlightAware Approximate
08:37AM 54.1031 -34.5982 270° West  Level FlightAware Approximate
08:38AM 54.1036 -34.7913 270° West  Level FlightAware Approximate
08:39AM 54.1038 -34.9844 270° West  Level FlightAware Approximate
08:40AM 54.1037 -35.1776 270° West  Level FlightAware Approximate
08:41AM 54.1032 -35.3707 270° West  Level FlightAware Approximate
08:42AM 54.1025 -35.5638 270° West  Level FlightAware Approximate
08:43AM 54.1014 -35.7569 270° West  Level FlightAware Approximate
08:44AM 54.1001 -35.9500 269° West  Level FlightAware Approximate
08:45AM 54.0984 -36.1431 269° West  Level FlightAware Approximate
08:46AM 54.0964 -36.3362 269° West  Level FlightAware Approximate
08:47AM 54.0941 -36.5292 269° West  Level FlightAware Approximate
08:48AM 54.0915 -36.7222 269° West  Level FlightAware Approximate
08:49AM 54.0886 -36.9152 269° West  Level FlightAware Approximate
08:50AM 54.0854 -37.1082 268° West  Level FlightAware Approximate
08:51AM 54.0819 -37.3011 268° West  Level FlightAware Approximate
08:52AM 54.0780 -37.4940 268° West  Level FlightAware Approximate
08:53AM 54.0739 -37.6869 268° West  Level FlightAware Approximate
08:54AM 54.0694 -37.8797 268° West  Level FlightAware Approximate
08:55AM 54.0647 -38.0725 268° West  Level FlightAware Approximate
08:56AM 54.0596 -38.2653 268° West  Level FlightAware Approximate
08:57AM 54.0542 -38.4580 267° West  Level FlightAware Approximate
08:58AM 54.0485 -38.6506 267° West  Level FlightAware Approximate
08:59AM 54.0425 -38.8432 267° West  Level FlightAware Approximate
09:00AM 54.0362 -39.0357 267° West  Level FlightAware Approximate
09:01AM 54.0296 -39.2282 267° West  Level FlightAware Approximate
09:02AM 54.0227 -39.4213 267° West  Level FlightAware Approximate
09:03AM 54.0154 -39.6144 266° West  Level FlightAware Approximate
09:04AM 54.0079 -39.8075 266° West  Level FlightAware Approximate
09:05AM 53.9999 -40.0004 255° West  Level FlightAware Approximate
09:06AM 53.9707 -40.1873 255° West  Level FlightAware Approximate
09:07AM 53.9413 -40.3739 255° West  Level FlightAware Approximate
09:08AM 53.9115 -40.5602 255° West  Level FlightAware Approximate
09:09AM 53.8814 -40.7463 255° West  Level FlightAware Approximate
09:10AM 53.8511 -40.9320 255° West  Level FlightAware Approximate
09:11AM 53.8204 -41.1176 254° West  Level FlightAware Approximate
09:12AM 53.7895 -41.3028 254° West  Level FlightAware Approximate
09:13AM 53.7583 -41.4878 254° West  Level FlightAware Approximate
09:14AM 53.7268 -41.6725 254° West  Level FlightAware Approximate
09:15AM 53.6951 -41.8569 254° West  Level FlightAware Approximate
09:16AM 53.6630 -42.0410 254° West  Level FlightAware Approximate
09:17AM 53.6307 -42.2249 254° West  Level FlightAware Approximate
09:18AM 53.5980 -42.4085 253° West  Level FlightAware Approximate
09:19AM 53.5652 -42.5918 254° West  Level FlightAware Approximate
09:20AM 53.5333 -42.7754 254° West  Level FlightAware Approximate
09:21AM 53.5010 -42.9588 254° West  Level FlightAware Approximate
09:22AM 53.4685 -43.1419 253° West  Level FlightAware Approximate
09:23AM 53.4357 -43.3246 253° West  Level FlightAware Approximate
09:24AM 53.4027 -43.5072 253° West  Level FlightAware Approximate
09:25AM 53.3694 -43.6894 253° West  Level FlightAware Approximate
09:26AM 53.3357 -43.8713 253° West  Level FlightAware Approximate
09:27AM 53.3018 -44.0530 253° West  Level FlightAware Approximate
09:28AM 53.2677 -44.2343 253° West  Level FlightAware Approximate
09:29AM 53.2332 -44.4154 252° West  Level FlightAware Approximate
09:30AM 53.1985 -44.5962 252° West  Level FlightAware Approximate
09:31AM 53.1635 -44.7767 252° West  Level FlightAware Approximate
09:32AM 53.1283 -44.9569 252° West  Level FlightAware Approximate
09:33AM 53.0927 -45.1368 252° West  Level FlightAware Approximate
09:34AM 53.0568 -45.3163 252° West  Level FlightAware Approximate
09:35AM 53.0206 -45.4955 252° West  Level FlightAware Approximate
09:36AM 52.9842 -45.6745 251° West  Level FlightAware Approximate
09:37AM 52.9475 -45.8531 251° West  Level FlightAware Approximate
09:38AM 52.9105 -46.0315 251° West  Level FlightAware Approximate
09:39AM 52.8733 -46.2095 251° West  Level FlightAware Approximate
09:40AM 52.8358 -46.3872 251° West  Level FlightAware Approximate
09:41AM 52.7980 -46.5646 251° West  Level FlightAware Approximate
09:42AM 52.7600 -46.7417 251° West  Level FlightAware Approximate
09:43AM 52.7217 -46.9185 250° West  Level FlightAware Approximate
09:44AM 52.6831 -47.0950 250° West  Level FlightAware Approximate
09:45AM 52.6443 -47.2712 250° West  Level FlightAware Approximate
09:46AM 52.6052 -47.4471 250° West  Level FlightAware Approximate
09:47AM 52.5659 -47.6226 250° West  Level FlightAware Approximate
09:48AM 52.5263 -47.7979 250° West  Level FlightAware Approximate
09:49AM 52.4864 -47.9728 250° West  Level FlightAware Approximate
09:50AM 52.4463 -48.1474 249° West  Level FlightAware Approximate
09:51AM 52.4059 -48.3216 249° West  Level FlightAware Approximate
09:51AM 51.9333 -50.2667 249° West 520 598 40,000  Level Gander Center
09:52AM 52.3652 -48.4959 249° West  Level FlightAware Approximate
09:52AM 51.8833 -50.4667 248° West 470 541 40,000  Level Gander Center
09:53AM 52.3242 -48.6699 249° West  Level FlightAware Approximate
09:53AM 51.8500 -50.6667 255° West 470 541 40,000  Level Gander Center
09:54AM 52.2830 -48.8436 249° West  Level FlightAware Approximate
09:54AM 51.8000 -50.8667 248° West 470 541 40,000  Level Gander Center
09:55AM 52.2416 -49.0169 249° West  Level FlightAware Approximate
09:55AM 51.7500 -51.0833 250° West 470 541 40,000  Level Gander Center
09:56AM 52.1998 -49.1899 249° West  Level FlightAware Approximate
09:56AM 51.6833 -51.2500 237° Southwest 470 541 40,000  Level Gander Center
09:57AM 51.6333 -51.4500 248° West 480 552 40,000  Level Gander Center
09:58AM 51.6000 -51.6000 250° West 470 541 40,000  Level Gander Center
09:58AM 51.5833 -51.6500 242° Southwest 470 541 40,000  Level Gander Center
09:59AM 51.5333 -51.8333 246° West 470 541 40,000  Level Gander Center
10:00AM 51.4833 -52.0333 248° West 470 541 40,000  Level Gander Center
10:01AM 51.4167 -52.2000 237° Southwest 470 541 40,000  Level Gander Center
10:02AM 51.3833 -52.3667 252° West 470 541 40,000  Level Gander Center
10:02AM 51.3667 -52.4000 231° Southwest 470 541 40,000  Level Gander Center
10:03AM 51.3167 -52.6000 248° West 470 541 40,000  Level Gander Center
10:04AM 51.2833 -52.7333 248° West 470 541 40,000  Level Gander Center
10:04AM 51.2500 -52.8000 231° Southwest 470 541 40,000  Level Gander Center
10:05AM 51.2000 -52.9667 244° Southwest 470 541 40,000  Level Moncton Center
10:06AM 51.1500 -53.1333 244° Southwest 460 529 40,000  Level Moncton Center
10:07AM 51.1000 -53.3167 247° West 470 541 40,000  Level Moncton Center
10:08AM 51.0333 -53.5167 242° Southwest 470 541 40,000  Level Moncton Center
10:09AM 50.9833 -53.6833 245° Southwest 470 541 40,000  Level Moncton Center
10:10AM 50.9333 -53.8833 248° West 470 541 40,000  Level Moncton Center
10:11AM 50.8833 -54.0333 242° Southwest 470 541 40,000  Level Gander Center
10:12AM 50.8167 -54.2833 247° West 470 541 40,000  Level Gander Center
10:13AM 50.7667 -54.4000 236° Southwest 470 541 40,000  Level Gander Center
10:14AM 50.7000 -54.6000 242° Southwest 470 541 40,000  Level Gander Center
10:14AM 50.6833 -54.6500 242° Southwest 470 541 40,000  Level Gander Center
10:15AM 50.6333 -54.8500 249° West 470 541 40,000  Level Gander Center
10:16AM 50.5667 -55.0167 238° Southwest 470 541 40,000  Level Gander Center
10:17AM 50.5167 -55.2000 247° West 470 541 40,000  Level Gander Center
10:18AM 50.4500 -55.4000 242° Southwest 470 541 40,000  Level Gander Center
10:19AM 50.4000 -55.5667 245° Southwest 470 541 40,000  Level Gander Center
10:20AM 50.3333 -55.7500 240° Southwest 470 541 40,000  Level Gander Center
10:21AM 50.2833 -55.9333 247° West 470 541 40,000  Level Gander Center
10:22AM 50.2167 -56.1000 238° Southwest 470 541 40,000  Level Gander Center
10:23AM 50.1500 -56.3000 243° Southwest 470 541 40,000  Level Gander Center
10:24AM 50.1000 -56.4500 243° Southwest 470 541 40,000  Level Gander Center
10:25AM 50.0333 -56.6500 243° Southwest 460 529 40,000  Level Gander Center
10:26AM 49.9667 -56.8333 241° Southwest 460 529 40,000  Level Gander Center
10:27AM 49.9000 -57.0167 241° Southwest 460 529 40,000  Level Gander Center
10:28AM 49.8500 -57.1833 245° Southwest 460 529 40,000  Level Gander Center
10:29AM 49.7833 -57.3667 241° Southwest 460 529 40,000  Level Gander Center
10:30AM 49.7167 -57.5333 238° Southwest 460 529 40,000  Level Gander Center
10:31AM 49.6667 -57.7167 247° West 460 529 40,000  Level Gander Center
10:32AM 49.6000 -57.8833 238° Southwest 460 529 40,000  Level Gander Center
10:33AM 49.5333 -58.0667 241° Southwest 460 529 40,000  Level Gander Center
10:34AM 49.4833 -58.2167 243° Southwest 460 529 40,000  Level Moncton Center
10:35AM 49.4167 -58.3667 236° Southwest 460 529 40,000  Level Moncton Center
10:36AM 49.3667 -58.5333 245° Southwest 460 529 40,000  Level Moncton Center
10:37AM 49.3000 -58.7167 241° Southwest 460 529 40,000  Level Moncton Center
10:38AM 49.2500 -58.8833 245° Southwest 460 529 40,000  Level Moncton Center
10:39AM 49.1667 -59.0667 235° Southwest 460 529 40,000  Level Moncton Center
10:40AM 49.1000 -59.2333 239° Southwest 460 529 40,000  Level Moncton Center
10:41AM 49.0333 -59.3833 236° Southwest 460 529 40,000  Level Moncton Center
10:42AM 48.9667 -59.5500 239° Southwest 460 529 40,000  Level Moncton Center
10:43AM 48.9000 -59.7333 241° Southwest 460 529 40,000  Level Moncton Center
10:44AM 48.8333 -59.9000 239° Southwest 460 529 40,000  Level Moncton Center
10:45AM 48.7667 -60.0500 236° Southwest 460 529 40,000  Level Moncton Center
10:46AM 48.7000 -60.2167 239° Southwest 460 529 40,000  Level Moncton Center
10:47AM 48.6333 -60.3667 236° Southwest 460 529 40,000  Level Moncton Center
10:48AM 48.5500 -60.5500 236° Southwest 460 529 40,000  Level Moncton Center
10:49AM 48.5000 -60.7000 243° Southwest 460 529 40,000  Level Moncton Center
10:50AM 48.4167 -60.8667 233° Southwest 450 518 40,000  Level Moncton Center
10:51AM 48.3500 -61.0167 236° Southwest 450 518 40,000  Level Moncton Center
10:52AM 48.2833 -61.2000 241° Southwest 460 529 40,000  Level Moncton Center
10:53AM 48.2167 -61.3500 236° Southwest 460 529 40,000  Level Moncton Center
10:54AM 48.1500 -61.5167 239° Southwest 460 529 40,000  Level Moncton Center
10:55AM 48.0667 -61.6667 230° Southwest 460 529 40,000  Level Moncton Center
10:56AM 48.0000 -61.8167 236° Southwest 460 529 40,000  Level Moncton Center
10:57AM 47.9500 -61.9667 244° Southwest 460 529 40,000  Level Moncton Center
10:58AM 47.8667 -62.1500 236° Southwest 460 529 40,000  Level Moncton Center
10:59AM 47.8000 -62.3000 237° Southwest 460 529 40,000  Level Moncton Center
11:00AM 47.7167 -62.4500 230° Southwest 460 529 40,000  Level Moncton Center
11:01AM 47.6500 -62.6000 237° Southwest 460 529 40,000  Level Moncton Center
11:02AM 47.5667 -62.7833 236° Southwest 450 518 40,000  Level Moncton Center
11:03AM 47.5000 -62.9167 234° Southwest 450 518 40,000  Level Moncton Center
11:04AM 47.4333 -63.0667 237° Southwest 450 518 40,000  Level Moncton Center
11:05AM 47.3833 -63.2333 246° West 450 518 40,000  Level Moncton Center
11:06AM 47.3000 -63.3833 231° Southwest 450 518 40,000  Level Moncton Center
11:07AM 47.2333 -63.5333 237° Southwest 450 518 40,000  Level Moncton Center
11:08AM 47.1667 -63.6833 237° Southwest 450 518 40,000  Level Moncton Center
11:09AM 47.0833 -63.8333 231° Southwest 450 518 40,000  Level Moncton Center
11:10AM 47.0167 -63.9833 237° Southwest 450 518 40,000  Level Moncton Center
11:11AM 46.9333 -64.1333 231° Southwest 450 518 40,000  Level Moncton Center
11:12AM 46.8667 -64.2667 234° Southwest 450 518 40,000  Level Moncton Center
11:13AM 46.8000 -64.4167 237° Southwest 450 518 40,000  Level Moncton Center
11:14AM 46.7333 -64.5667 237° Southwest 450 518 40,000  Level Moncton Center
11:15AM 46.6500 -64.7167 231° Southwest 450 518 40,000  Level Moncton Center
11:21AM 46.2180 -65.6160 231° Southwest 443 510 40,000  Level FlightAware
11:22AM 46.1710 -65.7080 234° Southwest 442 509 40,000  Level FlightAware
11:22AM 46.1130 -65.8200 233° Southwest 444 511 40,000  Level FlightAware
11:23AM 46.0670 -65.9110 234° Southwest 443 510 40,000  Level FlightAware
11:24AM 46.0230 -65.9950 233° Southwest 441 507 40,000  Level FlightAware
11:24AM 45.9620 -66.1120 233° Southwest 438 504 40,000  Level FlightAware
11:25AM 45.9130 -66.2070 233° Southwest 438 504 40,000  Level FlightAware
11:26AM 45.8580 -66.3120 233° Southwest 438 504 40,000  Level FlightAware
11:27AM 45.8100 -66.4050 234° Southwest 437 503 40,000  Level FlightAware
11:27AM 45.7610 -66.4970 233° Southwest 434 499 40,000  Level FlightAware
11:28AM 45.7090 -66.5950 233° Southwest 433 498 40,000  Level FlightAware
11:29AM 45.6600 -66.6880 233° Southwest 434 499 40,000  Level FlightAware
11:29AM 45.6030 -66.7940 232° Southwest 435 501 40,000  Level FlightAware
11:30AM 45.5740 -66.8500 234° Southwest 436 502 40,000  Level FlightAware
11:31AM 45.5090 -66.9710 233° Southwest 434 499 40,000  Level FlightAware
11:31AM 45.4550 -67.0720 233° Southwest 433 498 40,000  Level FlightAware
11:32AM 45.4050 -67.1640 232° Southwest 431 496 40,000  Level FlightAware
11:33AM 45.3570 -67.2530 233° Southwest 427 491 40,000  Level FlightAware
11:34AM 45.3010 -67.3560 232° Southwest 430 495 40,000  Level FlightAware
11:34AM 45.2490 -67.4510 232° Southwest 433 498 40,000  Level FlightAware
11:35AM 45.2010 -67.5400 233° Southwest 431 496 40,000  Level FlightAware
11:36AM 45.1440 -67.6430 232° Southwest 429 494 40,000  Level FlightAware
11:36AM 45.0950 -67.7320 232° Southwest 428 493 40,000  Level FlightAware
11:37AM 45.0420 -67.8290 232° Southwest 428 493 40,000  Level FlightAware
11:38AM 44.9910 -67.9200 232° Southwest 426 490 40,000  Level FlightAware
11:38AM 44.9440 -68.0060 232° Southwest 424 488 40,000  Level FlightAware
11:39AM 44.8890 -68.1050 232° Southwest 423 487 40,000  Level FlightAware
11:40AM 44.8400 -68.1920 232° Southwest 422 486 40,000  Level FlightAware
11:41AM 44.7840 -68.2920 232° Southwest 422 486 40,000  Level FlightAware
11:41AM 44.7330 -68.3820 231° Southwest 424 488 40,000  Level FlightAware
11:42AM 44.6800 -68.4760 232° Southwest 424 488 40,000  Level FlightAware
11:43AM 44.6250 -68.5740 232° Southwest 424 488 40,000  Level FlightAware
11:43AM 44.5750 -68.6620 231° Southwest 424 488 40,000  Level FlightAware
11:44AM 44.5270 -68.7450 231° Southwest 427 491 40,000  Level FlightAware
11:45AM 44.4700 -68.8450 231° Southwest 429 494 40,000  Level FlightAware
11:45AM 44.4210 -68.9320 232° Southwest 430 495 40,000  Level FlightAware
11:46AM 44.3700 -69.0200 231° Southwest 431 496 40,000  Level FlightAware
11:47AM 44.3150 -69.1150 231° Southwest 429 494 40,000  Level FlightAware
11:48AM 44.2660 -69.1990 231° Southwest 428 493 40,000  Level FlightAware
11:48AM 44.2140 -69.2890 231° Southwest 428 493 40,000  Level FlightAware
11:49AM 44.1580 -69.3850 231° Southwest 429 494 40,000  Level FlightAware
11:50AM 44.1050 -69.4770 231° Southwest 427 491 40,000  Level FlightAware
11:50AM 44.0540 -69.5640 231° Southwest 424 488 40,000  Level FlightAware
11:51AM 44.0040 -69.6430 229° Southwest 428 493 40,000  Level FlightAware
11:52AM 43.9300 -69.7250 219° Southwest 434 499 40,000  Level FlightAware
11:52AM 43.8670 -69.7930 218° Southwest 435 501 40,000  Level FlightAware
11:53AM 43.8040 -69.8620 218° Southwest 435 501 40,000  Level FlightAware
11:54AM 43.7410 -69.9300 218° Southwest 435 501 40,000  Level FlightAware
11:55AM 43.6700 -70.0070 218° Southwest 434 499 40,000  Level FlightAware
11:55AM 43.5970 -70.0850 218° Southwest 438 504 40,000  Level FlightAware
11:56AM 43.5330 -70.1540 218° Southwest 438 504 40,000  Level FlightAware
11:57AM 43.4710 -70.2210 218° Southwest 432 497 40,000  Level FlightAware
11:57AM 43.4140 -70.2810 217° Southwest 429 494 40,000  Level FlightAware
11:58AM 43.3450 -70.3550 218° Southwest 422 486 40,000  Level FlightAware
11:59AM 43.2820 -70.4220 218° Southwest 422 486 40,000  Level FlightAware
11:59AM 43.2140 -70.4940 218° Southwest 424 488 40,000  Level FlightAware
12:00PM 43.1510 -70.5600 217° Southwest 427 491 40,000  Level FlightAware
12:01PM 43.0890 -70.6260 218° Southwest 426 490 40,000  Level FlightAware
12:01PM 43.0160 -70.7020 217° Southwest 422 486 40,000  Level FlightAware
12:02PM 42.9570 -70.7650 218° Southwest 420 483 40,000  Level FlightAware
12:03PM 42.8870 -70.8380 217° Southwest 421 484 40,000  Level FlightAware
12:04PM 42.8210 -70.8960 213° Southwest 430 495 40,000  Level FlightAware
12:04PM 42.7490 -70.9410 205° Southwest 436 502 40,000 -120 Level FlightAware
12:05PM 42.6620 -70.9860 201° Southwest 431 496 39,900 -540 Descending FlightAware
12:06PM 42.5930 -71.0340 207° Southwest 419 482 39,300 -1,020 Descending FlightAware
12:06PM 42.5230 -71.0820 207° Southwest 417 480 38,600 -1,020 Descending FlightAware
12:07PM 42.4490 -71.1330 207° Southwest 416 479 37,900 -1,020 Descending FlightAware
12:08PM 42.3810 -71.1800 207° Southwest 422 486 37,200 -1,020 Descending FlightAware
12:08PM 42.3020 -71.2340 207° Southwest 429 494 36,500 -1,020 Descending FlightAware
12:09PM 42.2290 -71.2840 207° Southwest 433 498 35,800 -1,020 Descending FlightAware
12:10PM 42.1480 -71.3390 207° Southwest 436 502 35,100 -960 Descending FlightAware
12:11PM 42.0760 -71.3880 207° Southwest 439 505 34,500 -1,020 Descending FlightAware
12:11PM 42.0090 -71.4340 207° Southwest 435 501 33,800 -1,020 Descending FlightAware
12:12PM 41.9240 -71.4910 207° Southwest 437 503 33,100 -1,020 Descending FlightAware
12:13PM 41.8500 -71.5410 207° Southwest 449 517 32,400 -1,020 Descending FlightAware
12:13PM 41.7770 -71.5900 207° Southwest 454 522 31,800 -960 Descending FlightAware
12:14PM 41.7140 -71.6320 206° Southwest 450 518 31,200 -960 Descending FlightAware
12:15PM 41.6220 -71.6940 207° Southwest 452 520 30,500 -1,380 Descending FlightAware
12:15PM 41.5390 -71.7490 206° Southwest 457 526 29,200 -2,160 Descending FlightAware
12:16PM 41.4560 -71.8040 206° Southwest 455 524 27,500 -2,340 Descending FlightAware
12:17PM 41.3790 -71.8550 206° Southwest 447 514 25,900 -2,340 Descending FlightAware
12:18PM 41.2940 -71.9140 208° Southwest 426 490 24,200 -1,380 Descending FlightAware
12:18PM 41.2140 -71.9870 214° Southwest 415 478 23,600 -1,440 Descending FlightAware
12:20PM 41.1180 -72.1130 225° Southwest 401 461 21,200 -1,800 Descending FlightAware
12:21PM 41.0860 -72.1900 241° Southwest 388 447 19,900 -840 Descending FlightAware
12:21PM 41.0530 -72.2570 237° Southwest 388 447 19,900 -2,580 Level FlightAware
12:22PM 41.0260 -72.4170 257° West 371 427 16,300 -2,700 Descending FlightAware
12:23PM 41.0080 -72.4880 251° West 371 427 16,300  Level FlightAware
12:23PM 40.9840 -72.5790 251° West 371 427 16,300  Level FlightAware
12:24PM 40.9650 -72.6520 251° West 371 427 16,300  Level FlightAware
12:25PM 40.9460 -72.7250 251° West 371 427 16,300 -3,540 Level FlightAware
12:25PM 40.9050 -72.8230 241° Southwest 306 352 11,600 -3,900 Descending FlightAware
12:26PM 40.8540 -72.8710 215° Southwest 302 348 10,800 -1,140 Descending FlightAware
12:27PM 40.8030 -72.9210 217° Southwest 296 341 9,900 -1,320 Descending FlightAware
12:27PM 40.7730 -72.9500 216° Southwest 290 334 9,300 -1,380 Descending FlightAware
12:27PM 40.7640 -72.9590 217° Southwest 289 333 9,100 -960 Descending FlightAware
12:28PM 40.7260 -72.9950 216° Southwest 291 335 8,600 -1,020 Descending FlightAware
12:28PM 40.6970 -73.0220 215° Southwest 290 334 8,100 -1,140 Descending FlightAware
12:29PM 40.6640 -73.0540 216° Southwest 280 322 7,600 -1,140 Descending FlightAware
12:29PM 40.6440 -73.0860 231° Southwest 273 314 7,100 -1,320 Descending FlightAware
12:30PM 40.6240 -73.1220 234° Southwest 273 314 6,400 -1,200 Descending FlightAware
12:30PM 40.6010 -73.1620 233° Southwest 266 306 5,900 -1,020 Descending FlightAware
12:31PM 40.5830 -73.1940 233° Southwest 257 296 5,500 -1,140 Descending FlightAware
12:31PM 40.5610 -73.2320 233° Southwest 252 290 4,900 -1,200 Descending FlightAware
12:31PM 40.5500 -73.2450 222° Southwest 253 291 4,700 -720 Descending FlightAware
12:32PM 40.5370 -73.2570 215° Southwest 249 287 4,600 -540 Descending FlightAware
12:32PM 40.5100 -73.2820 215° Southwest 230 265 4,300 -600 Descending FlightAware
12:33PM 40.4910 -73.3060 224° Southwest 217 250 4,100 -780 Descending FlightAware
12:33PM 40.4690 -73.3340 224° Southwest 220 253 3,600 -720 Descending FlightAware
12:33PM 40.4610 -73.3500 237° Southwest 216 249 3,600  Level FlightAware
12:34PM 40.4490 -73.3840 245° Southwest 215 247 3,600  Level FlightAware
12:34PM 40.4380 -73.4160 246° West 215 247 3,600  Level FlightAware
12:35PM 40.4320 -73.4310 242° Southwest 214 246 3,600  Level FlightAware
12:35PM 40.4190 -73.4680 245° Southwest 214 246 3,600  Level FlightAware
12:35PM 40.4090 -73.4940 243° Southwest 213 245 3,600  Level FlightAware
12:36PM 40.4000 -73.5060 225° Southwest 218 251 3,600  Level FlightAware
12:36PM 40.3710 -73.5310 213° Southwest 219 252 3,600  Level FlightAware
12:37PM 40.3490 -73.5490 212° Southwest 219 252 3,600  Level FlightAware
12:37PM 40.3240 -73.5710 214° Southwest 219 252 3,600  Level FlightAware
12:37PM 40.3160 -73.5810 224° Southwest 213 245 3,600  Level FlightAware
12:38PM 40.3140 -73.6180 266° West 212 244 3,600  Level FlightAware
12:38PM 40.3180 -73.6520 279° West 212 244 3,600  Level FlightAware
12:39PM 40.3220 -73.6860 279° West 210 242 3,600  Level FlightAware
12:39PM 40.3260 -73.7180 279° West 210 242 3,600 -300 Level FlightAware
12:40PM 40.3310 -73.7630 278° West 211 243 3,300 -960 Descending FlightAware
12:40PM 40.3350 -73.8010 278° West 223 257 2,600 -780 Descending FlightAware
12:41PM 40.3390 -73.8350 279° West 224 258 2,600  Level FlightAware
12:41PM 40.3440 -73.8750 279° West 224 258 2,600  Level FlightAware
12:42PM 40.3580 -73.9090 298° West 209 241 2,600  Level FlightAware
12:42PM 40.3770 -73.9310 319° Northwest 205 236 2,600  Level FlightAware
12:42PM 40.3890 -73.9390 333° Northwest 194 223 2,600  Level FlightAware
12:43PM 40.4020 -73.9410 353° North 184 212 2,600  Level FlightAware
12:43PM 40.4340 -73.9320 12° North 183 211 2,600  Level FlightAware
12:44PM 40.4560 -73.9150 30° Northeast 172 198 2,600  Level FlightAware
12:44PM 40.4730 -73.9020 30° Northeast 173 199 2,600  Level FlightAware
12:45PM 40.4940 -73.8850 32° Northeast 173 199 2,600 -240 Level FlightAware
12:45PM 40.5150 -73.8680 32° Northeast 172 198 2,400 -660 Descending FlightAware
12:46PM 40.5320 -73.8550 30° Northeast 157 181 2,000 -1,020 Descending FlightAware
12:46PM 40.5490 -73.8420 30° Northeast 146 168 1,500 -1,020 Descending FlightAware
12:46PM 40.5630 -73.8310 31° Northeast 133 153 1,100 -900 Descending FlightAware
12:47PM 40.5800 -73.8190 28° Northeast 132 152 700 -840 Descending FlightAware
12:47PM 40.5870 -73.8130 33° Northeast 132 152 500 -780 Descending FlightAware
12:48PM 40.6000 -73.8030 30° Northeast 127 146 200 -720 Descending FlightAware
12:48PM 40.6070 -73.7970 33° Northeast 133 153 -840 Descending FlightAware
12:48PM 40.6230 -73.7850 30° Northeast 130 150  Level FlightAware